createdAt,value
2018-06-24T00:00:28.788Z,74.1
2018-06-24T00:01:30.262Z,75.0
2018-06-24T00:02:31.611Z,74.7
2018-06-24T00:03:32.964Z,74.6
2018-06-24T00:04:34.365Z,74.6
2018-06-24T00:05:35.688Z,74.9
2018-06-24T00:06:37.042Z,74.8
2018-06-24T00:07:38.398Z,74.6
2018-06-24T00:08:39.777Z,74.5
2018-06-24T00:09:41.129Z,74.7
2018-06-24T00:10:42.492Z,74.7
2018-06-24T00:11:43.842Z,75.2
2018-06-24T00:12:45.193Z,75.1
2018-06-24T00:13:46.583Z,75.1
2018-06-24T00:14:47.932Z,75.0
2018-06-24T00:15:49.333Z,75.0
2018-06-24T00:16:50.723Z,74.9
2018-06-24T00:17:52.088Z,74.9
2018-06-24T00:18:53.463Z,74.9
2018-06-24T00:19:54.819Z,75.0
2018-06-24T00:20:56.174Z,75.1
2018-06-24T00:21:57.539Z,74.6
2018-06-24T00:22:58.903Z,74.7
2018-06-24T00:24:00.255Z,75.1
2018-06-24T00:25:01.627Z,74.8
2018-06-24T00:26:02.980Z,74.9
2018-06-24T00:27:04.339Z,75.2
2018-06-24T00:28:05.694Z,75.5
2018-06-24T00:29:07.079Z,75.5
2018-06-24T00:30:08.437Z,75.7
2018-06-24T00:31:09.794Z,75.4
2018-06-24T00:32:11.177Z,75.5
2018-06-24T00:33:12.504Z,75.5
2018-06-24T00:34:13.867Z,75.7
2018-06-24T00:35:15.219Z,75.5
2018-06-24T00:36:16.589Z,75.5
2018-06-24T00:37:18.036Z,75.5
2018-06-24T00:38:19.317Z,75.5
2018-06-24T00:39:20.684Z,75.4
2018-06-24T00:40:22.043Z,75.4
2018-06-24T00:41:23.404Z,75.2
2018-06-24T00:42:24.769Z,75.4
2018-06-24T00:43:26.139Z,75.9
2018-06-24T00:44:27.495Z,75.5
2018-06-24T00:45:28.852Z,75.9
2018-06-24T00:46:30.224Z,75.8
2018-06-24T00:47:31.597Z,76.1
2018-06-24T00:48:32.963Z,75.8
2018-06-24T00:49:34.319Z,76.2
2018-06-24T00:50:35.678Z,76.4
2018-06-24T00:51:37.037Z,76.3
2018-06-24T00:52:38.397Z,76.0
2018-06-24T00:53:39.749Z,76.8
2018-06-24T00:54:41.109Z,76.9
2018-06-24T00:55:42.470Z,76.7
2018-06-24T00:56:43.817Z,76.8
2018-06-24T00:57:45.182Z,76.5
2018-06-24T00:58:46.554Z,76.3
2018-06-24T00:59:47.915Z,76.7
2018-06-24T01:00:49.300Z,76.7
2018-06-24T01:01:50.667Z,76.7
2018-06-24T01:02:52.020Z,76.9
2018-06-24T01:03:53.379Z,76.9
2018-06-24T01:04:54.742Z,76.7
2018-06-24T01:05:56.146Z,77.4
2018-06-24T01:06:57.488Z,77.3
2018-06-24T01:07:58.874Z,77.0
2018-06-24T01:09:00.211Z,77.1
2018-06-24T01:10:01.580Z,77.1
2018-06-24T01:11:02.943Z,77.1
2018-06-24T01:12:04.298Z,77.4
2018-06-24T01:13:05.665Z,77.1
2018-06-24T01:14:07.018Z,77.5
2018-06-24T01:15:08.381Z,77.1
2018-06-24T01:16:09.747Z,77.1
2018-06-24T01:17:11.103Z,77.3
2018-06-24T01:18:12.477Z,77.3
2018-06-24T01:19:13.845Z,77.4
2018-06-24T01:20:15.208Z,77.4
2018-06-24T01:21:16.578Z,77.5
2018-06-24T01:22:17.934Z,77.7
2018-06-24T01:23:19.341Z,77.9
2018-06-24T01:24:20.693Z,77.8
2018-06-24T01:25:22.053Z,77.4
2018-06-24T01:26:23.433Z,77.9
2018-06-24T01:27:24.799Z,78.0
2018-06-24T01:28:26.161Z,77.9
2018-06-24T01:29:27.508Z,77.8
2018-06-24T01:30:28.860Z,78.1
2018-06-24T01:31:30.216Z,78.3
2018-06-24T01:32:31.608Z,78.5
2018-06-24T01:33:32.965Z,78.2
2018-06-24T01:34:34.319Z,78.4
2018-06-24T01:35:35.677Z,78.1
2018-06-24T01:36:37.055Z,77.7
2018-06-24T01:37:38.406Z,78.0
2018-06-24T01:38:39.764Z,77.9
2018-06-24T01:39:41.269Z,78.1
2018-06-24T01:40:42.630Z,78.5
2018-06-24T01:41:43.985Z,78.2
2018-06-24T01:42:45.353Z,78.6
2018-06-24T01:43:46.715Z,78.6
2018-06-24T01:44:48.060Z,79.1
2018-06-24T01:45:49.448Z,78.9
2018-06-24T01:46:50.809Z,79.2
2018-06-24T01:47:52.172Z,79.2
2018-06-24T01:48:53.520Z,79.3
2018-06-24T01:49:54.885Z,79.1
2018-06-24T01:50:56.245Z,78.9
2018-06-24T01:51:57.594Z,79.5
2018-06-24T01:52:58.965Z,79.5
2018-06-24T01:54:00.319Z,79.2
2018-06-24T01:55:01.719Z,79.8
2018-06-24T01:56:03.063Z,79.3
2018-06-24T01:57:04.434Z,79.6
2018-06-24T01:58:05.779Z,79.7
2018-06-24T01:59:07.151Z,79.4
2018-06-24T02:00:08.510Z,79.6
2018-06-24T02:01:09.868Z,79.6
2018-06-24T02:02:11.224Z,79.4
2018-06-24T02:03:12.590Z,79.6
2018-06-24T02:04:13.935Z,80.0
2018-06-24T02:05:15.298Z,79.8
2018-06-24T02:06:16.610Z,80.2
2018-06-24T02:07:17.955Z,80.0
2018-06-24T02:08:20.295Z,80.4
2018-06-24T02:09:21.657Z,80.4
2018-06-24T02:10:23.016Z,80.6
2018-06-24T02:11:24.376Z,80.7
2018-06-24T02:12:25.735Z,80.5
2018-06-24T02:13:27.095Z,80.6
2018-06-24T02:14:28.439Z,80.7
2018-06-24T02:15:29.800Z,80.6
2018-06-24T02:16:31.164Z,80.7
2018-06-24T02:17:32.520Z,81.2
2018-06-24T02:18:33.878Z,80.9
2018-06-24T02:19:35.256Z,80.8
2018-06-24T02:20:36.619Z,81.3
2018-06-24T02:21:37.981Z,80.9
2018-06-24T02:22:39.343Z,81.0
2018-06-24T02:23:40.699Z,81.0
2018-06-24T02:24:42.064Z,81.0
2018-06-24T02:25:43.421Z,81.3
2018-06-24T02:26:44.769Z,81.1
2018-06-24T02:27:46.124Z,81.8
2018-06-24T02:28:47.514Z,81.5
2018-06-24T02:29:48.853Z,81.8
2018-06-24T02:30:50.252Z,81.6
2018-06-24T02:31:51.610Z,81.4
2018-06-24T02:32:52.959Z,82.1
2018-06-24T02:33:54.320Z,82.0
2018-06-24T02:34:55.683Z,82.2
2018-06-24T02:35:57.066Z,81.8
2018-06-24T02:36:58.429Z,81.6
2018-06-24T02:37:59.775Z,81.7
2018-06-24T02:39:01.145Z,82.4
2018-06-24T02:40:02.496Z,82.4
2018-06-24T02:41:03.889Z,82.1
2018-06-24T02:42:05.247Z,82.1
2018-06-24T02:43:06.606Z,82.4
2018-06-24T02:44:07.965Z,82.4
2018-06-24T02:45:09.324Z,82.3
2018-06-24T02:46:10.680Z,82.3
2018-06-24T02:47:12.054Z,82.3
2018-06-24T02:48:13.396Z,82.4
2018-06-24T02:49:14.779Z,82.3
2018-06-24T02:50:16.160Z,82.2
2018-06-24T02:51:17.504Z,82.4
2018-06-24T02:52:18.905Z,82.5
2018-06-24T02:53:20.250Z,82.8
2018-06-24T02:54:21.604Z,82.6
2018-06-24T02:55:22.965Z,82.6
2018-06-24T02:56:24.320Z,82.6
2018-06-24T02:57:25.695Z,82.4
2018-06-24T02:58:27.071Z,82.9
2018-06-24T02:59:28.427Z,82.7
2018-06-24T03:00:29.775Z,82.7
2018-06-24T03:01:31.172Z,83.0
2018-06-24T03:02:32.535Z,82.9
2018-06-24T03:03:33.892Z,83.1
2018-06-24T03:04:35.259Z,83.3
2018-06-24T03:05:36.650Z,83.0
2018-06-24T03:06:38.001Z,83.1
2018-06-24T03:07:39.351Z,83.7
2018-06-24T03:08:40.740Z,83.8
2018-06-24T03:09:42.096Z,83.5
2018-06-24T03:10:43.456Z,83.5
2018-06-24T03:11:44.822Z,83.9
2018-06-24T03:12:46.174Z,84.3
2018-06-24T03:13:47.552Z,84.1
2018-06-24T03:14:48.925Z,84.1
2018-06-24T03:15:50.261Z,84.0
2018-06-24T03:16:51.625Z,84.1
2018-06-24T03:17:52.981Z,84.3
2018-06-24T03:18:54.351Z,84.4
2018-06-24T03:19:55.720Z,84.4
2018-06-24T03:20:57.111Z,84.6
2018-06-24T03:21:58.479Z,84.4
2018-06-24T03:22:59.834Z,84.4
2018-06-24T03:24:01.189Z,84.6
2018-06-24T03:25:02.546Z,84.4
2018-06-24T03:26:03.900Z,84.6
2018-06-24T03:27:05.287Z,84.4
2018-06-24T03:28:06.689Z,84.4
2018-06-24T03:29:08.049Z,84.1
2018-06-24T03:30:09.405Z,84.3
2018-06-24T03:31:10.796Z,84.4
2018-06-24T03:32:12.179Z,84.6
2018-06-24T03:33:13.601Z,84.4
2018-06-24T03:34:14.976Z,84.4
2018-06-24T03:35:16.345Z,84.7
2018-06-24T03:36:17.760Z,85.1
2018-06-24T03:37:19.132Z,84.9
2018-06-24T03:38:20.486Z,84.7
2018-06-24T03:39:21.865Z,84.9
2018-06-24T03:40:23.279Z,85.1
2018-06-24T03:41:24.605Z,84.8
2018-06-24T03:42:25.967Z,85.1
2018-06-24T03:43:27.345Z,85.1
2018-06-24T03:44:28.702Z,85.1
2018-06-24T03:45:30.080Z,84.9
2018-06-24T03:46:31.441Z,85.1
2018-06-24T03:47:32.820Z,85.1
2018-06-24T03:48:34.175Z,85.1
2018-06-24T03:49:35.542Z,85.1
2018-06-24T03:50:36.931Z,84.9
2018-06-24T03:51:38.280Z,85.0
2018-06-24T03:52:39.632Z,85.1
2018-06-24T03:53:40.991Z,84.8
2018-06-24T03:54:42.356Z,84.5
2018-06-24T03:55:43.720Z,84.7
2018-06-24T03:56:45.100Z,84.7
2018-06-24T03:57:46.524Z,85.1
2018-06-24T03:58:47.897Z,84.9
2018-06-24T03:59:49.281Z,84.8
2018-06-24T04:00:50.652Z,84.4
2018-06-24T04:01:52.022Z,84.9
2018-06-24T04:02:53.377Z,84.4
2018-06-24T04:03:54.745Z,84.3
2018-06-24T04:04:56.116Z,84.6
2018-06-24T04:05:57.512Z,84.8
2018-06-24T04:06:58.880Z,84.8
2018-06-24T04:08:00.249Z,84.8
2018-06-24T04:09:01.616Z,84.8
2018-06-24T04:10:02.967Z,84.9
2018-06-24T04:11:04.330Z,85.1
2018-06-24T04:12:05.708Z,84.8
2018-06-24T04:13:07.063Z,85.0
2018-06-24T04:14:08.432Z,84.6
2018-06-24T04:15:09.801Z,84.7
2018-06-24T04:16:11.170Z,84.5
2018-06-24T04:17:12.529Z,84.5
2018-06-24T04:18:13.886Z,84.8
2018-06-24T04:19:15.259Z,84.7
2018-06-24T04:20:16.647Z,84.4
2018-06-24T04:21:18.441Z,84.4
2018-06-24T04:22:20.386Z,84.3
2018-06-24T04:23:21.745Z,84.5
2018-06-24T04:24:23.102Z,84.3
2018-06-24T04:25:24.516Z,84.1
2018-06-24T04:26:25.877Z,84.4
2018-06-24T04:27:27.240Z,84.2
2018-06-24T04:28:28.601Z,84.1
2018-06-24T04:29:29.977Z,84.2
2018-06-24T04:30:31.337Z,84.2
2018-06-24T04:31:32.700Z,84.3
2018-06-24T04:32:34.135Z,84.3
2018-06-24T04:33:35.534Z,84.5
2018-06-24T04:34:36.880Z,84.2
2018-06-24T04:35:38.266Z,84.1
2018-06-24T04:36:39.641Z,84.2
2018-06-24T04:37:40.997Z,83.9
2018-06-24T04:38:42.367Z,84.2
2018-06-24T04:39:43.746Z,83.9
2018-06-24T04:40:45.107Z,83.9
2018-06-24T04:41:46.473Z,83.5
2018-06-24T04:42:47.843Z,83.5
2018-06-24T04:43:49.235Z,83.4
2018-06-24T04:44:50.575Z,83.4
2018-06-24T04:45:51.941Z,83.1
2018-06-24T04:46:53.305Z,83.3
2018-06-24T04:47:54.668Z,83.3
2018-06-24T04:48:56.037Z,83.5
2018-06-24T04:49:57.407Z,83.7
2018-06-24T04:50:58.765Z,82.9
2018-06-24T04:52:00.139Z,83.3
2018-06-24T04:53:01.497Z,83.4
2018-06-24T04:54:02.867Z,83.4
2018-06-24T04:55:04.260Z,83.5
2018-06-24T04:56:05.623Z,83.2
2018-06-24T04:57:06.981Z,83.7
2018-06-24T04:58:08.355Z,83.2
2018-06-24T04:59:09.720Z,83.4
2018-06-24T05:00:11.082Z,83.0
2018-06-24T05:01:12.446Z,83.4
2018-06-24T05:02:13.821Z,83.0
2018-06-24T05:03:15.177Z,83.4
2018-06-24T05:04:16.547Z,83.5
2018-06-24T05:05:17.915Z,83.1
2018-06-24T05:06:19.832Z,83.2
2018-06-24T05:07:21.271Z,82.9
2018-06-24T05:08:22.667Z,82.9
2018-06-24T05:09:24.033Z,82.9
2018-06-24T05:10:25.522Z,82.8
2018-06-24T05:11:26.898Z,83.1
2018-06-24T05:12:28.275Z,82.7
2018-06-24T05:13:29.637Z,83.1
2018-06-24T05:14:31.003Z,83.1
2018-06-24T05:15:32.368Z,82.7
2018-06-24T05:16:33.743Z,82.7
2018-06-24T05:17:35.111Z,82.4
2018-06-24T05:18:36.481Z,82.3
2018-06-24T05:19:37.846Z,82.6
2018-06-24T05:20:39.213Z,82.5
2018-06-24T05:21:40.587Z,82.5
2018-06-24T05:22:41.971Z,82.6
2018-06-24T05:23:43.337Z,82.6
2018-06-24T05:24:44.699Z,82.2
2018-06-24T05:25:46.063Z,82.4
2018-06-24T05:26:47.434Z,82.1
2018-06-24T05:27:48.806Z,82.5
2018-06-24T05:28:50.218Z,82.4
2018-06-24T05:29:51.581Z,81.8
2018-06-24T05:30:52.953Z,81.8
2018-06-24T05:31:54.326Z,82.1
2018-06-24T05:32:55.686Z,82.0
2018-06-24T05:33:57.052Z,82.1
2018-06-24T05:34:58.428Z,81.8
2018-06-24T05:35:59.785Z,81.8
2018-06-24T05:37:01.159Z,81.3
2018-06-24T05:38:02.531Z,81.3
2018-06-24T05:39:03.959Z,81.4
2018-06-24T05:40:05.312Z,81.4
2018-06-24T05:41:06.685Z,81.2
2018-06-24T05:42:08.056Z,81.7
2018-06-24T05:43:09.504Z,81.8
2018-06-24T05:44:10.811Z,81.2
2018-06-24T05:45:12.176Z,81.4
2018-06-24T05:46:13.539Z,81.1
2018-06-24T05:47:14.901Z,81.4
2018-06-24T05:48:16.273Z,80.9
2018-06-24T05:49:17.643Z,81.3
2018-06-24T05:50:19.013Z,80.8
2018-06-24T05:51:20.406Z,80.7
2018-06-24T05:52:21.768Z,80.8
2018-06-24T05:53:23.128Z,80.5
2018-06-24T05:54:24.554Z,80.4
2018-06-24T05:55:25.863Z,80.4
2018-06-24T05:56:27.242Z,80.1
2018-06-24T05:57:28.601Z,79.5
2018-06-24T05:58:29.986Z,79.7
2018-06-24T05:59:31.351Z,79.7
2018-06-24T06:00:32.714Z,79.2
2018-06-24T06:01:34.093Z,79.1
2018-06-24T06:02:35.479Z,79.1
2018-06-24T06:03:36.887Z,79.5
2018-06-24T06:04:38.219Z,78.6
2018-06-24T06:05:39.589Z,78.5
2018-06-24T06:06:40.952Z,78.9
2018-06-24T06:07:43.016Z,78.6
2018-06-24T06:08:44.386Z,78.3
2018-06-24T06:09:45.753Z,78.0
2018-06-24T06:10:47.132Z,78.1
2018-06-24T06:11:48.498Z,78.1
2018-06-24T06:12:49.896Z,77.7
2018-06-24T06:13:51.281Z,77.5
2018-06-24T06:14:52.660Z,77.3
2018-06-24T06:15:54.029Z,77.4
2018-06-24T06:16:55.389Z,76.7
2018-06-24T06:17:56.777Z,76.1
2018-06-24T06:18:58.158Z,76.1
2018-06-24T06:19:59.529Z,75.7
2018-06-24T06:21:00.901Z,75.6
2018-06-24T06:22:02.307Z,75.2
2018-06-24T06:23:03.673Z,75.1
2018-06-24T06:24:05.040Z,74.7
2018-06-24T06:25:06.422Z,75.1
2018-06-24T06:26:07.793Z,74.7
2018-06-24T06:27:09.178Z,74.0
2018-06-24T06:28:10.543Z,74.1
2018-06-24T06:29:11.917Z,73.9
2018-06-24T06:30:13.354Z,74.0
2018-06-24T06:31:14.619Z,74.0
2018-06-24T06:32:16.004Z,73.7
2018-06-24T06:33:17.376Z,73.6
2018-06-24T06:34:18.750Z,73.3
2018-06-24T06:35:20.148Z,73.3
2018-06-24T06:36:21.523Z,72.7
2018-06-24T06:37:22.889Z,73.1
2018-06-24T06:38:24.267Z,72.6
2018-06-24T06:39:25.662Z,72.7
2018-06-24T06:40:27.025Z,72.6
2018-06-24T06:41:28.402Z,72.5
2018-06-24T06:42:29.783Z,72.6
2018-06-24T06:43:31.149Z,72.3
2018-06-24T06:44:32.519Z,72.0
2018-06-24T06:45:34.122Z,72.0
2018-06-24T06:46:35.247Z,72.1
2018-06-24T06:47:36.638Z,71.4
2018-06-24T06:48:38.035Z,71.2
2018-06-24T06:49:39.407Z,71.3
2018-06-24T06:50:40.794Z,71.1
2018-06-24T06:51:42.173Z,70.5
2018-06-24T06:52:43.550Z,70.8
2018-06-24T06:53:44.927Z,70.5
2018-06-24T06:54:46.303Z,70.1
2018-06-24T06:55:47.680Z,70.3
2018-06-24T06:56:49.082Z,70.1
2018-06-24T06:57:50.416Z,69.7
2018-06-24T06:58:51.752Z,69.6
2018-06-24T06:59:53.127Z,69.5
2018-06-24T07:00:54.502Z,68.8
2018-06-24T07:01:55.889Z,68.7
2018-06-24T07:02:57.278Z,68.8
2018-06-24T07:03:58.665Z,69.1
2018-06-24T07:05:00.050Z,68.5
2018-06-24T07:06:01.445Z,68.6
2018-06-24T07:07:02.818Z,68.5
2018-06-24T07:08:04.193Z,68.2
2018-06-24T07:09:05.565Z,68.2
2018-06-24T07:10:07.024Z,67.9
2018-06-24T07:11:08.418Z,67.7
2018-06-24T07:12:09.804Z,67.5
2018-06-24T07:13:11.192Z,67.7
2018-06-24T07:14:12.586Z,68.2
2018-06-24T07:15:13.969Z,68.5
2018-06-24T07:16:15.350Z,68.4
2018-06-24T07:17:16.730Z,68.4
2018-06-24T07:18:18.104Z,68.3
2018-06-24T07:19:19.532Z,68.1
2018-06-24T07:20:20.914Z,67.9
2018-06-24T07:21:22.323Z,67.8
2018-06-24T07:22:23.694Z,67.8
2018-06-24T07:23:25.088Z,67.5
2018-06-24T07:24:26.474Z,68.0
2018-06-24T07:25:27.856Z,67.4
2018-06-24T07:26:29.248Z,67.6
2018-06-24T07:27:30.627Z,67.2
2018-06-24T07:28:32.010Z,66.8
2018-06-24T07:29:33.414Z,66.6
2018-06-24T07:30:34.789Z,66.6
2018-06-24T07:31:36.169Z,65.9
2018-06-24T07:32:37.553Z,66.1
2018-06-24T07:33:38.971Z,65.9
2018-06-24T07:34:40.304Z,65.7
2018-06-24T07:35:41.680Z,65.4
2018-06-24T07:36:43.073Z,65.2
2018-06-24T07:37:44.475Z,65.0
2018-06-24T07:38:45.890Z,64.7
2018-06-24T07:39:47.289Z,64.5
2018-06-24T07:40:48.688Z,64.5
2018-06-24T07:41:50.149Z,64.6
2018-06-24T07:42:51.590Z,64.7
2018-06-24T07:43:53.063Z,64.2
2018-06-24T07:44:54.449Z,64.4
2018-06-24T07:45:55.875Z,64.2
2018-06-24T07:46:57.278Z,63.7
2018-06-24T07:47:58.722Z,63.9
2018-06-24T07:49:00.167Z,64.1
2018-06-24T07:50:01.572Z,64.0
2018-06-24T07:51:02.963Z,63.8
2018-06-24T07:52:04.374Z,64.3
2018-06-24T07:53:05.799Z,64.1
2018-06-24T07:54:07.229Z,64.2
2018-06-24T07:55:08.619Z,63.7
2018-06-24T07:56:10.006Z,64.1
2018-06-24T07:57:11.403Z,64.1
2018-06-24T07:58:12.785Z,63.9
2018-06-24T07:59:14.175Z,63.9
2018-06-24T08:00:15.569Z,63.5
2018-06-24T08:01:16.981Z,63.4
2018-06-24T08:02:18.391Z,63.3
2018-06-24T08:03:23.221Z,63.1
2018-06-24T08:04:24.511Z,63.4
2018-06-24T08:05:25.895Z,63.0
2018-06-24T08:06:27.305Z,62.8
2018-06-24T08:07:28.684Z,63.1
2018-06-24T08:08:30.068Z,63.3
2018-06-24T08:09:31.446Z,63.1
2018-06-24T08:10:32.829Z,63.0
2018-06-24T08:11:34.200Z,63.1
2018-06-24T08:12:35.584Z,63.1
2018-06-24T08:13:36.960Z,63.2
2018-06-24T08:14:38.375Z,63.0
2018-06-24T08:15:39.750Z,63.1
2018-06-24T08:16:41.115Z,63.2
2018-06-24T08:17:42.515Z,63.3
2018-06-24T08:18:43.881Z,62.8
2018-06-24T08:19:45.274Z,62.7
2018-06-24T08:20:46.655Z,62.7
2018-06-24T08:21:48.048Z,62.8
2018-06-24T08:22:50.407Z,63.1
2018-06-24T08:23:51.780Z,62.1
2018-06-24T08:24:53.155Z,62.3
2018-06-24T08:25:54.555Z,61.8
2018-06-24T08:26:55.941Z,62.0
2018-06-24T08:27:57.323Z,61.7
2018-06-24T08:28:58.735Z,61.7
2018-06-24T08:30:00.111Z,61.7
2018-06-24T08:31:01.495Z,61.9
2018-06-24T08:32:02.883Z,61.7
2018-06-24T08:33:04.265Z,61.6
2018-06-24T08:34:05.652Z,61.5
2018-06-24T08:35:07.034Z,61.2
2018-06-24T08:36:08.436Z,61.1
2018-06-24T08:37:09.791Z,60.6
2018-06-24T08:38:11.165Z,61.0
2018-06-24T08:39:12.561Z,61.1
2018-06-24T08:40:13.943Z,60.3
2018-06-24T08:41:15.311Z,61.0
2018-06-24T08:42:16.716Z,60.7
2018-06-24T08:43:18.101Z,60.7
2018-06-24T08:44:19.523Z,60.6
2018-06-24T08:45:20.895Z,61.2
2018-06-24T08:46:22.269Z,60.5
2018-06-24T08:47:23.804Z,60.3
2018-06-24T08:48:25.194Z,60.3
2018-06-24T08:49:26.581Z,60.1
2018-06-24T08:50:27.966Z,60.2
2018-06-24T08:51:29.331Z,60.0
2018-06-24T08:52:30.720Z,59.6
2018-06-24T08:53:32.089Z,59.8
2018-06-24T08:54:33.464Z,59.6
2018-06-24T08:55:34.846Z,59.5
2018-06-24T08:56:36.224Z,59.3
2018-06-24T08:57:37.640Z,59.0
2018-06-24T08:58:39.031Z,59.4
2018-06-24T08:59:40.407Z,59.1
2018-06-24T09:00:41.869Z,59.2
2018-06-24T09:01:43.155Z,59.2
2018-06-24T09:02:44.536Z,59.2
2018-06-24T09:03:45.912Z,59.0
2018-06-24T09:04:47.302Z,58.3
2018-06-24T09:05:48.680Z,59.0
2018-06-24T09:06:50.105Z,58.8
2018-06-24T09:07:51.481Z,58.4
2018-06-24T09:08:52.872Z,58.1
2018-06-24T09:09:54.312Z,57.7
2018-06-24T09:10:55.676Z,58.1
2018-06-24T09:11:57.071Z,58.3
2018-06-24T09:12:58.458Z,58.0
2018-06-24T09:13:59.884Z,57.3
2018-06-24T09:15:01.226Z,57.4
2018-06-24T09:16:02.623Z,57.2
2018-06-24T09:17:04.041Z,57.2
2018-06-24T09:18:05.420Z,57.0
2018-06-24T09:19:06.802Z,56.9
2018-06-24T09:20:08.196Z,56.9
2018-06-24T09:21:09.588Z,57.1
2018-06-24T09:22:10.977Z,57.0
2018-06-24T09:23:12.340Z,56.8
2018-06-24T09:24:13.778Z,56.4
2018-06-24T09:25:15.146Z,56.8
2018-06-24T09:26:16.533Z,56.5
2018-06-24T09:27:17.928Z,56.4
2018-06-24T09:28:20.045Z,56.5
2018-06-24T09:29:21.437Z,56.1
2018-06-24T09:30:22.811Z,56.3
2018-06-24T09:31:24.198Z,56.2
2018-06-24T09:32:25.576Z,55.8
2018-06-24T09:33:26.963Z,56.0
2018-06-24T09:34:28.337Z,55.9
2018-06-24T09:35:29.719Z,56.1
2018-06-24T09:36:31.110Z,55.7
2018-06-24T09:37:32.483Z,56.2
2018-06-24T09:38:33.863Z,56.3
2018-06-24T09:39:35.241Z,56.5
2018-06-24T09:40:36.612Z,56.0
2018-06-24T09:41:38.002Z,55.6
2018-06-24T09:42:39.386Z,55.4
2018-06-24T09:43:40.762Z,55.9
2018-06-24T09:44:42.170Z,55.8
2018-06-24T09:45:43.554Z,55.9
2018-06-24T09:46:44.939Z,55.5
2018-06-24T09:47:46.335Z,56.0
2018-06-24T09:48:47.717Z,54.9
2018-06-24T09:49:50.036Z,54.9
2018-06-24T09:50:51.408Z,54.7
2018-06-24T09:51:52.802Z,54.9
2018-06-24T09:52:54.195Z,55.0
2018-06-24T09:53:55.570Z,54.5
2018-06-24T09:54:56.945Z,54.7
2018-06-24T09:55:58.346Z,54.5
2018-06-24T09:56:59.718Z,54.7
2018-06-24T09:58:01.098Z,54.5
2018-06-24T09:59:02.528Z,54.6
2018-06-24T10:00:03.986Z,54.2
2018-06-24T10:01:05.373Z,54.0
2018-06-24T10:02:07.166Z,53.6
2018-06-24T10:03:08.537Z,54.0
2018-06-24T10:04:09.996Z,53.8
2018-06-24T10:05:11.393Z,53.7
2018-06-24T10:06:12.801Z,53.7
2018-06-24T10:07:14.186Z,53.7
2018-06-24T10:08:15.575Z,53.6
2018-06-24T10:09:16.956Z,53.8
2018-06-24T10:10:18.336Z,53.7
2018-06-24T10:11:20.647Z,53.3
2018-06-24T10:12:22.052Z,53.2
2018-06-24T10:13:23.616Z,53.2
2018-06-24T10:14:25.012Z,53.2
2018-06-24T10:15:26.441Z,53.1
2018-06-24T10:16:27.833Z,52.6
2018-06-24T10:17:29.281Z,53.1
2018-06-24T10:18:30.601Z,52.5
2018-06-24T10:19:31.997Z,52.4
2018-06-24T10:20:33.368Z,52.4
2018-06-24T10:21:34.751Z,52.6
2018-06-24T10:22:36.135Z,52.0
2018-06-24T10:23:37.507Z,52.2
2018-06-24T10:24:38.881Z,52.2
2018-06-24T10:25:40.259Z,52.4
2018-06-24T10:26:41.644Z,52.4
2018-06-24T10:27:43.012Z,51.9
2018-06-24T10:28:44.390Z,51.5
2018-06-24T10:29:45.768Z,51.7
2018-06-24T10:30:47.158Z,51.8
2018-06-24T10:31:48.532Z,51.2
2018-06-24T10:32:49.988Z,50.9
2018-06-24T10:33:51.381Z,51.4
2018-06-24T10:34:52.761Z,50.9
2018-06-24T10:35:54.218Z,51.0
2018-06-24T10:36:55.597Z,51.2
2018-06-24T10:37:56.979Z,50.6
2018-06-24T10:38:58.371Z,50.4
2018-06-24T10:39:59.756Z,50.4
2018-06-24T10:41:01.139Z,50.4
2018-06-24T10:42:02.516Z,50.2
2018-06-24T10:43:03.899Z,50.5
2018-06-24T10:44:05.292Z,50.3
2018-06-24T10:45:06.666Z,50.3
2018-06-24T10:46:08.038Z,50.2
2018-06-24T10:47:09.439Z,50.1
2018-06-24T10:48:10.841Z,49.9
2018-06-24T10:49:12.228Z,49.9
2018-06-24T10:50:13.622Z,49.8
2018-06-24T10:51:15.029Z,49.4
2018-06-24T10:52:16.411Z,49.8
2018-06-24T10:53:17.796Z,49.9
2018-06-24T10:54:19.865Z,49.6
2018-06-24T10:55:21.251Z,49.5
2018-06-24T10:56:22.631Z,49.0
2018-06-24T10:57:24.018Z,48.7
2018-06-24T10:58:25.398Z,48.2
2018-06-24T10:59:26.810Z,48.0
2018-06-24T11:00:28.208Z,48.5
2018-06-24T11:01:29.595Z,48.3
2018-06-24T11:02:30.998Z,47.6
2018-06-24T11:03:32.382Z,47.2
2018-06-24T11:04:33.762Z,47.2
2018-06-24T11:05:35.153Z,47.6
2018-06-24T11:06:36.540Z,47.6
2018-06-24T11:07:37.945Z,47.7
2018-06-24T11:08:39.341Z,47.4
2018-06-24T11:09:40.754Z,47.3
2018-06-24T11:10:42.151Z,47.2
2018-06-24T11:11:43.538Z,47.1
2018-06-24T11:12:44.970Z,47.2
2018-06-24T11:13:46.352Z,47.2
2018-06-24T11:14:47.757Z,47.0
2018-06-24T11:15:49.157Z,47.5
2018-06-24T11:16:50.602Z,47.5
2018-06-24T11:17:52.026Z,47.1
2018-06-24T11:18:53.407Z,47.3
2018-06-24T11:19:54.798Z,47.7
2018-06-24T11:20:56.191Z,47.4
2018-06-24T11:21:57.584Z,47.1
2018-06-24T11:22:58.972Z,47.4
2018-06-24T11:24:00.423Z,47.4
2018-06-24T11:25:01.811Z,47.5
2018-06-24T11:26:03.193Z,47.0
2018-06-24T11:27:04.594Z,46.5
2018-06-24T11:28:05.982Z,46.4
2018-06-24T11:29:07.382Z,46.4
2018-06-24T11:30:08.768Z,46.3
2018-06-24T11:31:10.165Z,45.9
2018-06-24T11:32:11.547Z,46.1
2018-06-24T11:33:12.946Z,45.7
2018-06-24T11:34:14.333Z,45.6
2018-06-24T11:35:15.723Z,45.3
2018-06-24T11:36:17.146Z,45.2
2018-06-24T11:37:18.526Z,45.4
2018-06-24T11:38:19.921Z,45.6
2018-06-24T11:39:21.319Z,45.4
2018-06-24T11:40:22.701Z,45.3
2018-06-24T11:41:24.101Z,45.0
2018-06-24T11:42:25.488Z,45.1
2018-06-24T11:43:26.887Z,44.5
2018-06-24T11:44:28.288Z,44.5
2018-06-24T11:45:29.694Z,44.7
2018-06-24T11:46:31.076Z,44.6
2018-06-24T11:47:32.466Z,44.8
2018-06-24T11:48:33.835Z,44.8
2018-06-24T11:49:35.244Z,44.9
2018-06-24T11:50:36.622Z,45.0
2018-06-24T11:51:38.006Z,45.3
2018-06-24T11:52:39.399Z,45.1
2018-06-24T11:53:40.788Z,45.1
2018-06-24T11:54:42.162Z,45.1
2018-06-24T11:55:43.568Z,45.3
2018-06-24T11:56:44.963Z,45.0
2018-06-24T11:57:46.348Z,45.3
2018-06-24T11:58:47.740Z,45.1
2018-06-24T11:59:49.138Z,44.9
2018-06-24T12:00:50.522Z,45.3
2018-06-24T12:01:54.345Z,45.0
2018-06-24T12:02:55.732Z,44.9
2018-06-24T12:03:57.123Z,44.6
2018-06-24T12:04:58.504Z,44.7
2018-06-24T12:05:59.896Z,44.7
2018-06-24T12:07:01.286Z,44.3
2018-06-24T12:08:02.672Z,44.2
2018-06-24T12:09:04.057Z,44.2
2018-06-24T12:10:08.840Z,44.2
2018-06-24T12:11:10.223Z,43.9
2018-06-24T12:12:12.338Z,43.9
2018-06-24T12:13:13.743Z,43.8
2018-06-24T12:14:16.247Z,43.9
2018-06-24T12:15:17.653Z,44.1
2018-06-24T12:16:20.658Z,44.3
2018-06-24T12:17:27.668Z,44.1
2018-06-24T12:18:26.057Z,44.0
2018-06-24T12:19:28.464Z,43.9
2018-06-24T12:20:29.853Z,44.1
2018-06-24T12:21:31.292Z,43.5
2018-06-24T12:22:32.677Z,43.3
2018-06-24T12:23:34.062Z,43.4
2018-06-24T12:24:35.449Z,43.7
2018-06-24T12:25:36.840Z,43.5
2018-06-24T12:26:38.237Z,43.5
2018-06-24T12:27:39.628Z,43.3
2018-06-24T12:28:41.026Z,43.4
2018-06-24T12:29:42.404Z,43.7
2018-06-24T12:30:43.801Z,43.4
2018-06-24T12:31:45.189Z,43.6
2018-06-24T12:32:46.589Z,43.6
2018-06-24T12:33:47.970Z,43.4
2018-06-24T12:34:55.308Z,43.7
2018-06-24T12:35:56.734Z,43.5
2018-06-24T12:36:58.121Z,43.4
2018-06-24T12:37:59.508Z,43.7
2018-06-24T12:39:00.892Z,43.5
2018-06-24T12:40:02.279Z,43.9
2018-06-24T12:41:03.674Z,44.0
2018-06-24T12:42:05.068Z,44.4
2018-06-24T12:43:06.464Z,44.0
2018-06-24T12:44:07.853Z,43.6
2018-06-24T12:45:09.242Z,44.0
2018-06-24T12:46:10.624Z,44.4
2018-06-24T12:47:11.998Z,44.1
2018-06-24T12:48:13.384Z,44.5
2018-06-24T12:49:14.762Z,44.2
2018-06-24T12:50:16.160Z,44.2
2018-06-24T12:51:17.542Z,44.3
2018-06-24T12:52:18.935Z,43.8
2018-06-24T12:53:20.325Z,43.6
2018-06-24T12:54:21.720Z,42.9
2018-06-24T12:55:23.124Z,43.5
2018-06-24T12:56:24.525Z,43.1
2018-06-24T12:57:25.889Z,42.9
2018-06-24T12:58:27.343Z,43.1
2018-06-24T12:59:28.984Z,43.0
2018-06-24T13:00:30.508Z,43.1
2018-06-24T13:01:31.424Z,43.0
2018-06-24T13:02:32.804Z,42.9
2018-06-24T13:03:34.181Z,42.9
2018-06-24T13:04:35.565Z,43.0
2018-06-24T13:05:36.943Z,42.8
2018-06-24T13:06:38.364Z,42.7
2018-06-24T13:07:39.870Z,42.5
2018-06-24T13:08:41.135Z,42.7
2018-06-24T13:09:42.549Z,42.9
2018-06-24T13:10:43.918Z,42.6
2018-06-24T13:11:45.321Z,42.9
2018-06-24T13:12:46.710Z,43.3
2018-06-24T13:13:48.089Z,42.9
2018-06-24T13:14:49.486Z,42.7
2018-06-24T13:15:50.868Z,42.9
2018-06-24T13:16:52.251Z,43.0
2018-06-24T13:17:53.648Z,42.8
2018-06-24T13:18:55.064Z,42.9
2018-06-24T13:19:56.449Z,42.9
2018-06-24T13:20:57.825Z,43.1
2018-06-24T13:21:59.223Z,42.8
2018-06-24T13:23:00.610Z,42.8
2018-06-24T13:24:02.850Z,42.8
2018-06-24T13:25:04.233Z,43.0
2018-06-24T13:26:05.617Z,43.1
2018-06-24T13:27:06.994Z,43.3
2018-06-24T13:28:08.378Z,43.3
2018-06-24T13:29:09.748Z,43.3
2018-06-24T13:30:11.133Z,43.2
2018-06-24T13:31:12.528Z,43.5
2018-06-24T13:32:14.530Z,43.3
2018-06-24T13:33:15.919Z,43.3
2018-06-24T13:34:17.305Z,43.1
2018-06-24T13:35:18.684Z,43.2
2018-06-24T13:36:20.063Z,43.4
2018-06-24T13:37:21.448Z,43.7